CW0354 West Islip NY US current weather conditions

sailwx.info

Wind from 247 at 4 knots gusting 6

Air temperature 5.0° C
Dewpoint 2.5° C

Last reported at 2020-Feb-24 05:04 UTC.
Time now 2020-Feb-24 06:07 UTC

Location: N 40°42' W 073°18'.
View on Google Maps.

See reports from other nearby stations

  
Tides and Currents Weather Stations Pressure Air Temp Water Temp Dewpoint Dewpoint Depression Visibility Wind Speed Wind Dir Waves Ship Positions
date/time (UTC)wind fromknots sea level pressurealtimeterstation pressurevisibilityair tempwater tempwave heightnotes
2020-Feb-24 05:04 247 4 gusting 6 5.0
2020-Feb-24 04:59 244 2 gusting 6 5.0
2020-Feb-24 04:54 252 4 gusting 6 5.0
2020-Feb-24 04:49 246 3 gusting 6 5.0
2020-Feb-24 04:34 273 2 gusting 6 5.0
2020-Feb-24 04:29 245 1 gusting 5 4.4
2020-Feb-24 04:09 240 2 gusting 6 5.0
2020-Feb-24 04:04 252 2 gusting 5 5.0
2020-Feb-24 03:59 238 4 gusting 5 5.0
2020-Feb-24 03:54 243 4 gusting 6 5.0
2020-Feb-24 03:44 240 3 gusting 6 5.0
2020-Feb-24 03:39 273 4 gusting 6 5.0
2020-Feb-24 03:34 278 3 gusting 6 5.0
2020-Feb-24 03:29 269 3 gusting 7 5.0
2020-Feb-24 03:24 252 4 gusting 6 5.0
2020-Feb-24 03:19 261 4 gusting 7 5.0
2020-Feb-24 03:09 249 6 gusting 10 5.0
2020-Feb-24 02:54 243 5 gusting 7 5.0
2020-Feb-24 02:49 245 4 gusting 7 5.0
2020-Feb-24 02:44 264 4 gusting 7 5.0
2020-Feb-24 02:39 266 4 gusting 8 5.6
2020-Feb-24 02:34 265 5 gusting 10 5.6
2020-Feb-24 02:29 264 5 gusting 11 5.6
2020-Feb-24 02:24 285 4 gusting 6 5.6
2020-Feb-24 02:19 277 6 gusting 8 5.6
2020-Feb-24 02:04 286 3 gusting 6 5.6
2020-Feb-24 01:39 247 4 gusting 8 5.6
2020-Feb-24 01:34 254 5 gusting 8 5.6
2020-Feb-24 01:24 242 6 gusting 10 5.6
2020-Feb-24 01:19 251 5 gusting 8 5.6
2020-Feb-24 01:14 241 5 gusting 12 5.6
2020-Feb-24 00:54 244 5 gusting 7 5.6
2020-Feb-24 00:49 243 5 gusting 10 5.6
2020-Feb-24 00:29 234 5 gusting 8 5.6
2020-Feb-24 00:24 242 6 gusting 11 6.1
2020-Feb-24 00:19 242 6 gusting 10 6.1
2020-Feb-23 23:54 233 6 gusting 11 6.1
2020-Feb-23 23:39 241 5 gusting 10 6.1
2020-Feb-23 23:24 237 4 gusting 7 6.1
2020-Feb-23 23:14 229 4 gusting 7 6.1
2020-Feb-23 22:59 244 1 gusting 5 6.1
2020-Feb-23 22:49 257 0 gusting 2 6.7
2020-Feb-23 22:44 217 1 gusting 4 6.7
2020-Feb-23 22:14 244 3 gusting 6 8.3
2020-Feb-23 22:09 241 4 gusting 7 8.3
2020-Feb-23 21:54 228 3 gusting 6 8.9
2020-Feb-23 21:39 243 4 gusting 6 8.9
2020-Feb-23 21:34 224 4 gusting 8 8.9
2020-Feb-23 21:24 227 5 gusting 8 9.4
2020-Feb-23 21:19 229 5 gusting 10 9.4
2020-Feb-23 21:14 234 5 gusting 10 9.4
2020-Feb-23 21:04 236 6 gusting 10 10.0
2020-Feb-23 20:59 227 6 gusting 11 10.0
2020-Feb-23 20:49 224 6 gusting 11 10.0
2020-Feb-23 20:39 229 6 gusting 11 10.6
2020-Feb-23 20:29 241 4 gusting 8 10.6
2020-Feb-23 20:24 224 5 gusting 10 10.6
2020-Feb-23 20:19 228 5 gusting 8 10.6
2020-Feb-23 20:14 229 5 gusting 12 10.6
2020-Feb-23 19:59 218 5 gusting 12 10.6
2020-Feb-23 19:54 217 6 gusting 12 10.6
2020-Feb-23 19:44 224 5 gusting 11 11.1
2020-Feb-23 19:39 221 4 gusting 11 11.1
2020-Feb-23 19:34 229 6 gusting 11 11.1
2020-Feb-23 19:29 224 5 gusting 8 11.1
2020-Feb-23 19:19 239 7 gusting 12 10.6
2020-Feb-23 19:14 229 8 gusting 13 11.1
2020-Feb-23 18:49 235 6 gusting 11 11.1
2020-Feb-23 18:39 235 7 gusting 12 11.1
2020-Feb-23 18:29 231 6 gusting 12 11.1
2020-Feb-23 18:04 238 6 gusting 12 11.1
2020-Feb-23 17:54 241 6 gusting 13 10.6
2020-Feb-23 17:49 234 7 gusting 12 10.6
2020-Feb-23 17:44 234 8 gusting 12 10.6
2020-Feb-23 17:39 234 6 gusting 13 10.6
2020-Feb-23 17:29 235 6 gusting 10 10.6
2020-Feb-23 17:24 241 7 gusting 11 10.6
2020-Feb-23 17:14 235 6 gusting 12 10.6
2020-Feb-23 16:59 233 5 gusting 10 10.6
2020-Feb-23 16:49 242 4 gusting 10 10.6
2020-Feb-23 16:44 242 6 gusting 10 10.6
2020-Feb-23 16:39 237 6 gusting 12 10.0
2020-Feb-23 16:34 232 6 gusting 10 10.0
2020-Feb-23 16:14 250 5 gusting 7 10.0
2020-Feb-23 16:09 239 4 gusting 7 10.0
2020-Feb-23 16:04 238 5 gusting 8 9.4
2020-Feb-23 15:54 247 5 gusting 7 9.4
2020-Feb-23 15:49 243 5 gusting 7 9.4
2020-Feb-23 15:44 244 4 gusting 8 8.9
2020-Feb-23 15:34 240 5 gusting 7 8.9
2020-Feb-23 15:29 247 3 gusting 6 8.3
2020-Feb-23 15:19 225 2 gusting 6 7.8
2020-Feb-23 15:14 246 2 gusting 6 7.8
2020-Feb-23 15:04 257 3 gusting 7 7.8
2020-Feb-23 14:59 246 4 gusting 6 7.2
2020-Feb-23 14:49 250 3 gusting 6 7.2
2020-Feb-23 14:34 249 3 gusting 6 7.8
2020-Feb-23 14:24 251 2 gusting 6 7.2
2020-Feb-23 14:19 248 4 gusting 6 6.7
2020-Feb-23 14:09 249 2 gusting 6 6.7
2020-Feb-23 14:04 246 2 gusting 5 6.7
2020-Feb-23 13:54 294 3 gusting 6 6.1
2020-Feb-23 13:49 299 1 gusting 6 5.6
2020-Feb-23 13:44 286 4 gusting 6 5.0
2020-Feb-23 13:39 297 4 gusting 6 5.0
2020-Feb-23 13:34 286 2 gusting 6 4.4
2020-Feb-23 13:29 298 3 gusting 6 4.4
2020-Feb-23 13:24 288 2 gusting 6 3.9
2020-Feb-23 13:19 303 4 gusting 6 3.3
2020-Feb-23 13:04 297 2 gusting 5 2.2
2020-Feb-23 12:39 303 1 gusting 4 0.6
2020-Feb-23 12:29 282 1 gusting 4 -0.0
2020-Feb-23 12:24 265 1 gusting 2 -0.0
2020-Feb-23 12:19 243 0 gusting 4 -0.0
2020-Feb-23 12:14 279 2 gusting 4 -0.0
2020-Feb-23 12:09 290 1 gusting 2 -0.6
2020-Feb-23 11:54 286 1 gusting 2 -0.6
2020-Feb-23 11:44 296 2 gusting 5 -0.0
2020-Feb-23 11:29 287 2 gusting 4 -0.6
2020-Feb-23 11:19 300 2 gusting 4 -0.6
2020-Feb-23 11:14 287 2 gusting 4 -0.6
2020-Feb-23 11:04 300 1 gusting 2 -1.1
2020-Feb-23 10:59 279 1 gusting 2 -1.1
2020-Feb-23 10:54 224 -0.6
2020-Feb-23 10:49 224 -0.6
2020-Feb-23 10:39 224 -0.6
2020-Feb-23 10:34 224 -0.6
2020-Feb-23 10:29 224 -0.6
2020-Feb-23 10:19 257 1 gusting 2 -0.0
2020-Feb-23 09:54 250 1 gusting 2 0.6
2020-Feb-23 09:49 282 1 gusting 4 0.6
2020-Feb-23 09:39 312 1 gusting 4 0.6
2020-Feb-23 09:09 282 3 gusting 6 -0.0
2020-Feb-23 09:04 291 1 gusting 2 -0.0
2020-Feb-23 08:54 275 2 gusting 4 -0.0
2020-Feb-23 08:44 262 1 gusting 4 -0.0
2020-Feb-23 08:39 272 1 gusting 2 -0.0
2020-Feb-23 08:29 262 0 gusting 1 -0.0
2020-Feb-23 08:19 291 1 gusting 2 0.6
2020-Feb-23 08:14 300 1 gusting 2 0.6
2020-Feb-23 08:04 285 1 gusting 2 0.6
2020-Feb-23 07:59 281 1 gusting 2 -4.4
2020-Feb-23 07:54 292 1 gusting 2 -4.4
2020-Feb-23 07:44 288 1 gusting 2 -4.4
2020-Feb-23 07:39 310 1 gusting 2 -4.4
2020-Feb-23 07:34 290 1 gusting 2 -4.4
2020-Feb-23 07:29 290 1 gusting 2 -4.4
2020-Feb-23 06:49 248 1 gusting 2 -3.9
2020-Feb-23 06:39 245 2 gusting 5 -1.7
2020-Feb-23 06:24 247 2 gusting 5 -3.9
2020-Feb-23 06:19 243 2 gusting 4 -0.6
2020-Feb-23 05:59 261 1 gusting 4 0.6
2020-Feb-23 05:44 245 1 gusting 2 -0.0
2020-Feb-23 05:34 261 1 gusting 4 -0.0
2020-Feb-23 05:29 263 2 gusting 4 -0.0
2020-Feb-23 05:14 262 1 gusting 2 -0.0
2020-Feb-23 05:09 251 1 gusting 1 -0.0
2020-Feb-23 05:04 264 1 gusting 2 -0.0
2020-Feb-23 04:59 275 1 gusting 4 -0.6
2020-Feb-23 04:49 245 1 gusting 2 -0.0
2020-Feb-23 04:44 243 1 gusting 1 -0.0
2020-Feb-23 04:39 297 0 gusting 1 -0.0
2020-Feb-23 04:29 295 -0.0
2020-Feb-23 04:24 295 -0.0
2020-Feb-23 04:14 271 1 gusting 2 -0.0
2020-Feb-23 04:09 235 1 gusting 1 -0.0
2020-Feb-23 04:04 237 0.6
2020-Feb-23 03:59 237 0.6
2020-Feb-23 03:54 237 0.6
2020-Feb-23 03:49 237 0.6
2020-Feb-23 03:44 237 0.6
2020-Feb-23 03:29 245 1 gusting 2 1.1
2020-Feb-23 03:19 255 0 gusting 2 1.1
2020-Feb-23 03:14 246 1 gusting 2 1.1
2020-Feb-23 03:04 264 1 gusting 2 1.1
2020-Feb-23 02:59 061 1.1
2020-Feb-23 02:54 061 1.7
2020-Feb-23 02:39 061 1.7
2020-Feb-23 02:24 061 2.2
2020-Feb-23 02:19 061 2.2
2020-Feb-23 02:14 061 2.2
2020-Feb-23 02:09 061 0 gusting 1 2.8
2020-Feb-23 01:59 343 2.8
2020-Feb-23 01:54 359 2.8
2020-Feb-23 01:39 340 0 gusting 0 3.3
2020-Feb-23 01:34 320 3.9
2020-Feb-23 01:29 320 4.4
2020-Feb-23 01:24 320 4.4
2020-Feb-23 01:19 320 4.4
2020-Feb-23 01:14 320 5.0
2020-Feb-23 01:09 320 5.0
2020-Feb-23 01:04 280 1 gusting 6 5.0
2020-Feb-23 00:49 250 2 gusting 6 5.0
2020-Feb-23 00:39 259 2 gusting 6 5.0
2020-Feb-23 00:19 277 4 gusting 6 5.0
2020-Feb-23 00:09 263 2 gusting 6 5.0
2020-Feb-22 23:59 257 2 gusting 7 5.6
2020-Feb-22 23:54 263 3 gusting 6 5.6
2020-Feb-22 23:39 279 5 gusting 10 5.6
2020-Feb-22 23:34 283 5 gusting 8 5.6
2020-Feb-22 23:19 277 4 gusting 7 5.6
2020-Feb-22 23:14 283 4 gusting 7 6.1
2020-Feb-22 23:09 267 5 gusting 8 6.1
2020-Feb-22 23:04 266 4 gusting 10 6.1
2020-Feb-22 22:59 262 4 gusting 6 6.1
2020-Feb-22 22:54 263 3 gusting 7 6.1
2020-Feb-22 22:44 257 5 gusting 10 6.1
2020-Feb-22 22:39 272 4 gusting 7 6.1
2020-Feb-22 22:34 257 1 gusting 6 6.7
2020-Feb-22 22:19 231 5 gusting 7 7.2
2020-Feb-22 22:09 242 4 gusting 7 7.2
2020-Feb-22 22:04 238 5 gusting 8 7.8
2020-Feb-22 21:59 249 3 gusting 6 7.8
2020-Feb-22 21:49 258 4 gusting 6 7.8
2020-Feb-22 21:44 241 4 gusting 6 7.8
2020-Feb-22 21:39 240 4 gusting 6 7.8
2020-Feb-22 21:34 232 5 gusting 7 8.3
2020-Feb-22 21:24 232 5 gusting 7 8.3
2020-Feb-22 21:14 233 4 gusting 10 8.3
2020-Feb-22 21:09 238 6 gusting 12 8.3
2020-Feb-22 20:59 258 5 gusting 10 8.3
2020-Feb-22 20:49 237 6 gusting 11 8.3
2020-Feb-22 20:39 231 5 gusting 7 8.3
2020-Feb-22 20:34 224 5 gusting 7 8.3
2020-Feb-22 20:24 218 5 gusting 10 8.3
2020-Feb-22 20:19 234 7 gusting 12 8.3
2020-Feb-22 20:14 229 6 gusting 13 8.3
2020-Feb-22 20:09 230 8 gusting 13 8.3
2020-Feb-22 19:59 230 7 gusting 12 8.3
2020-Feb-22 19:54 228 6 gusting 13 8.3
2020-Feb-22 19:44 220 6 gusting 13 8.3
2020-Feb-22 19:39 230 7 gusting 13 8.9
2020-Feb-22 19:34 247 6 gusting 13 8.9
2020-Feb-22 19:24 234 7 gusting 13 8.3
2020-Feb-22 19:19 239 7 gusting 13 8.3
2020-Feb-22 19:09 252 7 gusting 14 8.3
2020-Feb-22 18:54 241 7 gusting 14 7.8
2020-Feb-22 18:44 239 6 gusting 17 7.8
2020-Feb-22 18:39 235 7 gusting 13 7.8
2020-Feb-22 18:29 245 6 gusting 15 7.8
2020-Feb-22 18:24 245 8 gusting 13 7.8
2020-Feb-22 18:14 238 7 gusting 13 7.2
2020-Feb-22 18:09 240 7 gusting 13 7.8
2020-Feb-22 17:59 235 8 gusting 13 7.2
2020-Feb-22 17:54 229 7 gusting 13 7.2
2020-Feb-22 17:49 235 7 gusting 13 7.2
2020-Feb-22 17:34 243 6 gusting 13 7.2
2020-Feb-22 17:24 244 6 gusting 13 7.2
2020-Feb-22 17:19 236 5 gusting 13 7.2
2020-Feb-22 17:14 252 6 gusting 13 7.2
2020-Feb-22 17:09 245 6 gusting 11 7.2
2020-Feb-22 17:04 227 6 gusting 12 7.2
2020-Feb-22 16:44 234 6 gusting 12 6.7
2020-Feb-22 16:09 288 5 gusting 10 6.7
2020-Feb-22 15:59 298 3 gusting 7 6.1
2020-Feb-22 15:54 340 4 gusting 7 6.1
2020-Feb-22 15:34 287 5 gusting 12 5.0
2020-Feb-22 15:29 308 6 gusting 12 5.0
2020-Feb-22 15:09 295 6 gusting 12 4.4
2020-Feb-22 15:04 310 6 gusting 13 4.4
2020-Feb-22 14:59 278 6 gusting 11 4.4
2020-Feb-22 14:54 313 4 gusting 10 4.4
2020-Feb-22 14:39 295 6 gusting 12 3.9
2020-Feb-22 14:29 296 6 gusting 13 3.3
2020-Feb-22 14:24 279 5 gusting 11 3.3
2020-Feb-22 13:44 275 6 gusting 11 2.2
2020-Feb-22 13:24 263 6 gusting 13 1.7
2020-Feb-22 13:19 277 5 gusting 10 1.7
2020-Feb-22 13:09 273 5 gusting 12 1.1
2020-Feb-22 13:04 261 5 gusting 12 1.1
2020-Feb-22 12:54 250 6 gusting 12 0.6
2020-Feb-22 12:44 274 5 gusting 11 0.6
2020-Feb-22 12:34 279 5 gusting 11 -0.0
2020-Feb-22 12:29 283 6 gusting 12 -0.0
2020-Feb-22 12:19 249 5 gusting 10 -0.0
2020-Feb-22 12:14 264 5 gusting 8 -0.0
2020-Feb-22 12:04 267 5 gusting 8 -0.6
2020-Feb-22 11:59 263 4 gusting 10 -0.6
2020-Feb-22 11:34 270 5 gusting 11 -0.6
2020-Feb-22 11:29 279 6 gusting 10 -0.0
2020-Feb-22 11:19 268 4 gusting 7 -0.6
2020-Feb-22 11:14 277 5 gusting 13 -0.0
2020-Feb-22 11:04 268 4 gusting 8 -0.0
2020-Feb-22 10:59 267 6 gusting 12 -0.0
2020-Feb-22 10:54 276 6 gusting 11 -0.0
2020-Feb-22 10:44 272 6 gusting 10 -0.0
2020-Feb-22 10:39 282 4 gusting 11 -0.0
2020-Feb-22 10:14 269 6 gusting 10 -0.6
2020-Feb-22 10:09 287 4 gusting 8 -0.6
2020-Feb-22 10:04 291 2 gusting 7 -0.6
2020-Feb-22 09:59 301 2 gusting 6 -0.6
2020-Feb-22 09:54 242 1 gusting 6 -0.0
2020-Feb-22 09:49 277 5 gusting 8 -0.0
2020-Feb-22 09:39 272 5 gusting 10 -0.0
2020-Feb-22 09:29 281 6 gusting 10 -0.0
2020-Feb-22 09:14 289 6 gusting 11 -0.0
2020-Feb-22 09:04 284 7 gusting 13 -0.0
2020-Feb-22 08:54 271 6 gusting 11 -0.0
2020-Feb-22 08:49 263 6 gusting 11 -0.0
2020-Feb-22 08:44 275 5 gusting 11 -0.0
2020-Feb-22 08:34 261 6 gusting 12 -0.0
2020-Feb-22 08:24 262 5 gusting 10 -0.0
2020-Feb-22 08:09 279 6 gusting 10 0.6
2020-Feb-22 08:04 292 5 gusting 12 0.6
2020-Feb-22 07:59 276 6 gusting 10 -0.0
2020-Feb-22 07:49 266 6 gusting 8 0.6
2020-Feb-22 07:34 274 5 gusting 8 -0.0
2020-Feb-22 07:29 272 4 gusting 10 -0.0
2020-Feb-22 07:24 276 5 gusting 7 -0.0
2020-Feb-22 06:59 276 5 gusting 10 -0.0
2020-Feb-22 06:49 272 6 gusting 10 -0.0
2020-Feb-22 06:44 286 5 gusting 7 -0.0
2020-Feb-22 06:34 270 5 gusting 10 -0.0
2020-Feb-22 06:24 274 4 gusting 7 -0.0
2020-Feb-22 06:19 272 3 gusting 7 -0.0
2020-Feb-22 06:14 272 4 gusting 10 -0.0
2020-Feb-22 06:09 278 5 gusting 10 -0.0